sensor_id;sensor_type;location;lat;lon;timestamp;P1;durP1;ratioP1;P2;durP2;ratioP2
24261;SDS011;12385;51.412;5.540;2023-09-18T00:00:43;21.23;;;17.55;;
24261;SDS011;12385;51.412;5.540;2023-09-18T00:03:09;21.65;;;16.98;;
24261;SDS011;12385;51.412;5.540;2023-09-18T00:05:37;21.08;;;17.95;;
24261;SDS011;12385;51.412;5.540;2023-09-18T00:08:03;24.50;;;17.70;;
24261;SDS011;12385;51.412;5.540;2023-09-18T00:10:28;19.35;;;16.73;;
24261;SDS011;12385;51.412;5.540;2023-09-18T00:12:55;22.45;;;16.63;;
24261;SDS011;12385;51.412;5.540;2023-09-18T00:15:21;20.73;;;15.98;;
24261;SDS011;12385;51.412;5.540;2023-09-18T00:17:47;18.48;;;15.60;;
24261;SDS011;12385;51.412;5.540;2023-09-18T00:20:13;19.13;;;14.95;;
24261;SDS011;12385;51.412;5.540;2023-09-18T00:22:39;19.20;;;15.35;;
24261;SDS011;12385;51.412;5.540;2023-09-18T00:25:04;18.85;;;15.13;;
24261;SDS011;12385;51.412;5.540;2023-09-18T00:27:30;19.63;;;15.15;;
24261;SDS011;12385;51.412;5.540;2023-09-18T00:29:57;24.30;;;14.65;;
24261;SDS011;12385;51.412;5.540;2023-09-18T00:32:23;19.85;;;14.27;;
24261;SDS011;12385;51.412;5.540;2023-09-18T00:34:49;16.15;;;14.00;;
24261;SDS011;12385;51.412;5.540;2023-09-18T00:37:15;16.85;;;13.75;;
24261;SDS011;12385;51.412;5.540;2023-09-18T00:39:41;18.98;;;14.63;;
24261;SDS011;12385;51.412;5.540;2023-09-18T00:42:07;16.42;;;14.02;;
24261;SDS011;12385;51.412;5.540;2023-09-18T00:44:38;18.63;;;13.60;;
24261;SDS011;12385;51.412;5.540;2023-09-18T00:47:03;18.48;;;14.18;;
24261;SDS011;12385;51.412;5.540;2023-09-18T00:49:30;19.88;;;13.90;;
24261;SDS011;12385;51.412;5.540;2023-09-18T00:51:56;17.38;;;13.93;;
24261;SDS011;12385;51.412;5.540;2023-09-18T00:54:22;17.70;;;14.23;;
24261;SDS011;12385;51.412;5.540;2023-09-18T00:56:47;18.48;;;14.10;;
24261;SDS011;12385;51.412;5.540;2023-09-18T00:59:14;20.67;;;14.00;;
24261;SDS011;12385;51.412;5.540;2023-09-18T01:01:42;18.25;;;13.32;;
24261;SDS011;12385;51.412;5.540;2023-09-18T01:06:35;17.48;;;13.77;;
24261;SDS011;12385;51.412;5.540;2023-09-18T01:09:02;18.83;;;13.98;;
24261;SDS011;12385;51.412;5.540;2023-09-18T01:11:40;16.90;;;13.32;;
24261;SDS011;12385;51.412;5.540;2023-09-18T01:17:00;16.42;;;13.75;;
24261;SDS011;12385;51.412;5.540;2023-09-18T01:19:38;20.27;;;12.95;;
24261;SDS011;12385;51.412;5.540;2023-09-18T01:22:05;17.65;;;13.27;;
24261;SDS011;12385;51.412;5.540;2023-09-18T01:24:33;17.10;;;12.32;;
24261;SDS011;12385;51.412;5.540;2023-09-18T01:26:59;19.67;;;12.18;;
24261;SDS011;12385;51.412;5.540;2023-09-18T01:29:25;15.70;;;11.50;;
24261;SDS011;12385;51.412;5.540;2023-09-18T01:31:51;15.13;;;11.60;;
24261;SDS011;12385;51.412;5.540;2023-09-18T01:34:18;18.42;;;11.25;;
24261;SDS011;12385;51.412;5.540;2023-09-18T01:36:46;14.05;;;10.23;;
24261;SDS011;12385;51.412;5.540;2023-09-18T01:39:12;17.08;;;10.55;;
24261;SDS011;12385;51.412;5.540;2023-09-18T01:41:39;13.02;;;10.02;;
24261;SDS011;12385;51.412;5.540;2023-09-18T01:44:06;18.17;;;10.25;;
24261;SDS011;12385;51.412;5.540;2023-09-18T01:46:32;15.80;;;9.20;;
24261;SDS011;12385;51.412;5.540;2023-09-18T01:49:01;14.88;;;9.20;;
24261;SDS011;12385;51.412;5.540;2023-09-18T01:51:28;16.50;;;8.60;;
24261;SDS011;12385;51.412;5.540;2023-09-18T01:53:55;22.73;;;8.75;;
24261;SDS011;12385;51.412;5.540;2023-09-18T01:56:21;15.90;;;8.38;;
24261;SDS011;12385;51.412;5.540;2023-09-18T01:58:47;14.57;;;8.20;;
24261;SDS011;12385;51.412;5.540;2023-09-18T02:01:12;14.02;;;7.65;;
24261;SDS011;12385;51.412;5.540;2023-09-18T02:03:38;13.73;;;7.72;;
24261;SDS011;12385;51.412;5.540;2023-09-18T02:06:09;19.13;;;7.78;;
24261;SDS011;12385;51.412;5.540;2023-09-18T02:08:35;13.57;;;6.87;;
24261;SDS011;12385;51.412;5.540;2023-09-18T02:11:01;14.10;;;7.22;;
24261;SDS011;12385;51.412;5.540;2023-09-18T02:13:28;13.23;;;7.03;;
24261;SDS011;12385;51.412;5.540;2023-09-18T02:15:54;20.83;;;7.78;;
24261;SDS011;12385;51.412;5.540;2023-09-18T02:18:20;13.38;;;7.95;;
24261;SDS011;12385;51.412;5.540;2023-09-18T02:20:46;14.18;;;6.93;;
24261;SDS011;12385;51.412;5.540;2023-09-18T02:23:14;13.95;;;6.38;;
24261;SDS011;12385;51.412;5.540;2023-09-18T02:28:09;15.57;;;7.22;;
24261;SDS011;12385;51.412;5.540;2023-09-18T02:30:35;18.88;;;7.32;;
24261;SDS011;12385;51.412;5.540;2023-09-18T02:33:01;12.75;;;6.95;;
24261;SDS011;12385;51.412;5.540;2023-09-18T02:35:28;15.20;;;7.78;;
24261;SDS011;12385;51.412;5.540;2023-09-18T02:37:54;14.70;;;7.28;;
24261;SDS011;12385;51.412;5.540;2023-09-18T02:40:22;18.60;;;7.13;;
24261;SDS011;12385;51.412;5.540;2023-09-18T02:42:47;16.85;;;7.38;;
24261;SDS011;12385;51.412;5.540;2023-09-18T02:45:13;16.15;;;6.75;;
24261;SDS011;12385;51.412;5.540;2023-09-18T02:47:39;18.63;;;7.50;;
24261;SDS011;12385;51.412;5.540;2023-09-18T02:50:06;15.80;;;6.60;;
24261;SDS011;12385;51.412;5.540;2023-09-18T02:52:32;17.77;;;6.70;;
24261;SDS011;12385;51.412;5.540;2023-09-18T02:54:58;15.95;;;6.80;;
24261;SDS011;12385;51.412;5.540;2023-09-18T02:57:23;16.75;;;6.45;;
24261;SDS011;12385;51.412;5.540;2023-09-18T02:59:49;15.45;;;6.25;;
24261;SDS011;12385;51.412;5.540;2023-09-18T03:02:14;19.90;;;6.03;;
24261;SDS011;12385;51.412;5.540;2023-09-18T03:04:40;15.65;;;6.03;;
24261;SDS011;12385;51.412;5.540;2023-09-18T03:07:05;20.45;;;6.15;;
24261;SDS011;12385;51.412;5.540;2023-09-18T03:09:31;15.65;;;5.90;;
24261;SDS011;12385;51.412;5.540;2023-09-18T03:11:57;16.52;;;7.15;;
24261;SDS011;12385;51.412;5.540;2023-09-18T03:14:23;13.77;;;6.20;;
24261;SDS011;12385;51.412;5.540;2023-09-18T03:16:49;18.27;;;6.72;;
24261;SDS011;12385;51.412;5.540;2023-09-18T03:19:15;18.50;;;6.78;;
24261;SDS011;12385;51.412;5.540;2023-09-18T03:21:41;23.02;;;6.65;;
24261;SDS011;12385;51.412;5.540;2023-09-18T03:24:06;16.80;;;6.72;;
24261;SDS011;12385;51.412;5.540;2023-09-18T03:26:35;15.10;;;5.97;;
24261;SDS011;12385;51.412;5.540;2023-09-18T03:29:01;16.63;;;6.40;;
24261;SDS011;12385;51.412;5.540;2023-09-18T03:31:27;21.13;;;6.53;;
24261;SDS011;12385;51.412;5.540;2023-09-18T03:33:54;19.17;;;6.47;;
24261;SDS011;12385;51.412;5.540;2023-09-18T03:36:21;28.20;;;6.30;;
24261;SDS011;12385;51.412;5.540;2023-09-18T03:38:48;15.95;;;6.28;;
24261;SDS011;12385;51.412;5.540;2023-09-18T03:41:14;14.27;;;6.10;;
24261;SDS011;12385;51.412;5.540;2023-09-18T03:43:40;15.38;;;6.30;;
24261;SDS011;12385;51.412;5.540;2023-09-18T03:46:06;16.38;;;6.57;;
24261;SDS011;12385;51.412;5.540;2023-09-18T03:48:32;17.77;;;6.28;;
24261;SDS011;12385;51.412;5.540;2023-09-18T03:51:05;20.02;;;6.43;;
24261;SDS011;12385;51.412;5.540;2023-09-18T03:56:00;13.63;;;6.30;;
24261;SDS011;12385;51.412;5.540;2023-09-18T03:58:26;12.18;;;6.00;;
24261;SDS011;12385;51.412;5.540;2023-09-18T04:00:52;14.70;;;6.28;;
24261;SDS011;12385;51.412;5.540;2023-09-18T04:03:18;14.70;;;6.68;;
24261;SDS011;12385;51.412;5.540;2023-09-18T04:05:43;14.55;;;6.60;;
24261;SDS011;12385;51.412;5.540;2023-09-18T04:08:09;14.30;;;6.88;;
24261;SDS011;12385;51.412;5.540;2023-09-18T04:10:36;14.90;;;6.97;;
24261;SDS011;12385;51.412;5.540;2023-09-18T04:13:02;15.35;;;6.88;;
24261;SDS011;12385;51.412;5.540;2023-09-18T04:15:29;14.05;;;6.85;;
24261;SDS011;12385;51.412;5.540;2023-09-18T04:17:55;13.48;;;6.72;;
24261;SDS011;12385;51.412;5.540;2023-09-18T04:20:21;12.30;;;7.03;;
24261;SDS011;12385;51.412;5.540;2023-09-18T04:23:16;14.13;;;6.88;;
24261;SDS011;12385;51.412;5.540;2023-09-18T04:25:49;15.50;;;7.50;;
24261;SDS011;12385;51.412;5.540;2023-09-18T04:28:17;13.85;;;7.72;;
24261;SDS011;12385;51.412;5.540;2023-09-18T04:30:44;13.73;;;6.97;;
24261;SDS011;12385;51.412;5.540;2023-09-18T04:33:11;13.70;;;7.30;;
24261;SDS011;12385;51.412;5.540;2023-09-18T04:35:38;13.52;;;6.28;;
24261;SDS011;12385;51.412;5.540;2023-09-18T04:38:05;8.55;;;4.95;;
24261;SDS011;12385;51.412;5.540;2023-09-18T04:40:35;11.32;;;5.20;;
24261;SDS011;12385;51.412;5.540;2023-09-18T04:43:01;13.85;;;6.18;;
24261;SDS011;12385;51.412;5.540;2023-09-18T04:45:29;10.00;;;4.65;;
24261;SDS011;12385;51.412;5.540;2023-09-18T04:47:55;11.45;;;4.55;;
24261;SDS011;12385;51.412;5.540;2023-09-18T04:50:21;11.13;;;4.20;;
24261;SDS011;12385;51.412;5.540;2023-09-18T04:52:47;10.88;;;4.00;;
24261;SDS011;12385;51.412;5.540;2023-09-18T04:55:13;5.78;;;3.58;;
24261;SDS011;12385;51.412;5.540;2023-09-18T04:57:39;11.85;;;4.47;;
24261;SDS011;12385;51.412;5.540;2023-09-18T05:00:05;9.77;;;4.03;;
24261;SDS011;12385;51.412;5.540;2023-09-18T05:02:37;7.85;;;3.50;;
24261;SDS011;12385;51.412;5.540;2023-09-18T05:05:03;7.70;;;3.60;;
24261;SDS011;12385;51.412;5.540;2023-09-18T05:07:29;6.45;;;3.35;;
24261;SDS011;12385;51.412;5.540;2023-09-18T05:09:55;7.72;;;4.00;;
24261;SDS011;12385;51.412;5.540;2023-09-18T05:12:21;6.03;;;3.28;;
24261;SDS011;12385;51.412;5.540;2023-09-18T05:14:47;6.80;;;3.70;;
24261;SDS011;12385;51.412;5.540;2023-09-18T05:17:14;8.98;;;3.45;;
24261;SDS011;12385;51.412;5.540;2023-09-18T05:19:41;11.27;;;3.67;;
24261;SDS011;12385;51.412;5.540;2023-09-18T05:22:10;7.78;;;3.22;;
24261;SDS011;12385;51.412;5.540;2023-09-18T05:24:39;6.15;;;3.25;;
24261;SDS011;12385;51.412;5.540;2023-09-18T05:27:05;9.57;;;3.20;;
24261;SDS011;12385;51.412;5.540;2023-09-18T05:29:32;7.53;;;3.10;;
24261;SDS011;12385;51.412;5.540;2023-09-18T05:31:58;8.68;;;3.10;;
24261;SDS011;12385;51.412;5.540;2023-09-18T05:34:23;6.72;;;2.65;;
24261;SDS011;12385;51.412;5.540;2023-09-18T05:36:49;4.53;;;2.60;;
24261;SDS011;12385;51.412;5.540;2023-09-18T05:39:15;10.32;;;2.63;;
24261;SDS011;12385;51.412;5.540;2023-09-18T05:41:40;8.57;;;2.40;;
24261;SDS011;12385;51.412;5.540;2023-09-18T05:44:06;5.18;;;2.30;;
24261;SDS011;12385;51.412;5.540;2023-09-18T05:46:35;4.93;;;2.20;;
24261;SDS011;12385;51.412;5.540;2023-09-18T05:49:02;6.53;;;2.13;;
24261;SDS011;12385;51.412;5.540;2023-09-18T05:51:28;4.88;;;2.13;;
24261;SDS011;12385;51.412;5.540;2023-09-18T05:53:54;7.95;;;2.10;;
24261;SDS011;12385;51.412;5.540;2023-09-18T05:56:20;6.43;;;2.17;;
24261;SDS011;12385;51.412;5.540;2023-09-18T05:58:46;4.18;;;1.90;;
24261;SDS011;12385;51.412;5.540;2023-09-18T06:01:11;5.82;;;1.90;;
24261;SDS011;12385;51.412;5.540;2023-09-18T06:03:37;5.63;;;2.10;;
24261;SDS011;12385;51.412;5.540;2023-09-18T06:06:03;5.63;;;1.98;;
24261;SDS011;12385;51.412;5.540;2023-09-18T06:08:30;5.90;;;1.85;;
24261;SDS011;12385;51.412;5.540;2023-09-18T06:10:56;4.53;;;2.00;;
24261;SDS011;12385;51.412;5.540;2023-09-18T06:13:25;6.55;;;2.10;;
24261;SDS011;12385;51.412;5.540;2023-09-18T06:15:53;10.05;;;2.00;;
24261;SDS011;12385;51.412;5.540;2023-09-18T06:18:20;4.75;;;2.05;;
24261;SDS011;12385;51.412;5.540;2023-09-18T06:20:49;7.20;;;2.10;;
24261;SDS011;12385;51.412;5.540;2023-09-18T06:23:15;5.10;;;2.05;;
24261;SDS011;12385;51.412;5.540;2023-09-18T06:25:41;5.85;;;1.70;;
24261;SDS011;12385;51.412;5.540;2023-09-18T06:28:07;3.85;;;1.52;;
24261;SDS011;12385;51.412;5.540;2023-09-18T06:30:33;5.53;;;2.00;;
24261;SDS011;12385;51.412;5.540;2023-09-18T06:33:02;7.35;;;4.25;;
24261;SDS011;12385;51.412;5.540;2023-09-18T06:35:29;4.30;;;1.90;;
24261;SDS011;12385;51.412;5.540;2023-09-18T06:37:54;5.00;;;1.80;;
24261;SDS011;12385;51.412;5.540;2023-09-18T06:40:23;4.50;;;1.85;;
24261;SDS011;12385;51.412;5.540;2023-09-18T06:42:50;6.03;;;1.77;;
24261;SDS011;12385;51.412;5.540;2023-09-18T06:45:16;7.03;;;2.10;;
24261;SDS011;12385;51.412;5.540;2023-09-18T06:47:42;5.20;;;2.08;;
24261;SDS011;12385;51.412;5.540;2023-09-18T06:50:08;7.25;;;1.58;;
24261;SDS011;12385;51.412;5.540;2023-09-18T06:52:34;3.05;;;1.70;;
24261;SDS011;12385;51.412;5.540;2023-09-18T06:55:00;5.43;;;1.52;;
24261;SDS011;12385;51.412;5.540;2023-09-18T06:57:26;4.60;;;1.73;;
24261;SDS011;12385;51.412;5.540;2023-09-18T06:59:52;7.93;;;1.77;;
24261;SDS011;12385;51.412;5.540;2023-09-18T07:02:18;3.10;;;1.52;;
24261;SDS011;12385;51.412;5.540;2023-09-18T07:04:44;4.70;;;1.88;;
24261;SDS011;12385;51.412;5.540;2023-09-18T07:07:14;4.65;;;1.80;;
24261;SDS011;12385;51.412;5.540;2023-09-18T07:09:40;5.55;;;1.88;;
24261;SDS011;12385;51.412;5.540;2023-09-18T07:12:07;5.82;;;1.67;;
24261;SDS011;12385;51.412;5.540;2023-09-18T07:14:34;8.13;;;2.10;;
24261;SDS011;12385;51.412;5.540;2023-09-18T07:17:00;3.95;;;1.65;;
24261;SDS011;12385;51.412;5.540;2023-09-18T07:19:27;5.55;;;1.75;;
24261;SDS011;12385;51.412;5.540;2023-09-18T07:21:52;4.50;;;1.90;;
24261;SDS011;12385;51.412;5.540;2023-09-18T07:24:18;5.05;;;1.70;;
24261;SDS011;12385;51.412;5.540;2023-09-18T07:26:46;4.18;;;1.75;;
24261;SDS011;12385;51.412;5.540;2023-09-18T07:29:15;5.30;;;1.90;;
24261;SDS011;12385;51.412;5.540;2023-09-18T07:31:44;6.83;;;1.80;;
24261;SDS011;12385;51.412;5.540;2023-09-18T07:34:10;6.03;;;1.80;;
24261;SDS011;12385;51.412;5.540;2023-09-18T07:36:37;5.97;;;1.80;;
24261;SDS011;12385;51.412;5.540;2023-09-18T07:39:03;4.70;;;1.60;;
24261;SDS011;12385;51.412;5.540;2023-09-18T07:41:29;6.15;;;2.35;;
24261;SDS011;12385;51.412;5.540;2023-09-18T07:43:55;4.05;;;1.80;;
24261;SDS011;12385;51.412;5.540;2023-09-18T07:46:23;5.20;;;1.60;;
24261;SDS011;12385;51.412;5.540;2023-09-18T07:48:50;3.15;;;1.60;;
24261;SDS011;12385;51.412;5.540;2023-09-18T07:51:15;5.90;;;1.90;;
24261;SDS011;12385;51.412;5.540;2023-09-18T07:53:42;7.35;;;1.85;;
24261;SDS011;12385;51.412;5.540;2023-09-18T07:56:08;6.10;;;1.85;;
24261;SDS011;12385;51.412;5.540;2023-09-18T07:58:33;3.30;;;1.90;;
24261;SDS011;12385;51.412;5.540;2023-09-18T08:01:03;5.22;;;1.88;;
24261;SDS011;12385;51.412;5.540;2023-09-18T08:03:30;3.78;;;1.65;;
24261;SDS011;12385;51.412;5.540;2023-09-18T08:05:56;7.93;;;1.70;;
24261;SDS011;12385;51.412;5.540;2023-09-18T08:08:22;6.95;;;1.85;;
24261;SDS011;12385;51.412;5.540;2023-09-18T08:10:51;5.80;;;1.73;;
24261;SDS011;12385;51.412;5.540;2023-09-18T08:13:17;4.18;;;1.85;;
24261;SDS011;12385;51.412;5.540;2023-09-18T08:15:44;6.60;;;1.95;;
24261;SDS011;12385;51.412;5.540;2023-09-18T08:18:11;7.97;;;1.52;;
24261;SDS011;12385;51.412;5.540;2023-09-18T08:20:41;6.25;;;1.60;;
24261;SDS011;12385;51.412;5.540;2023-09-18T08:23:10;4.95;;;1.80;;
24261;SDS011;12385;51.412;5.540;2023-09-18T08:25:37;4.60;;;1.70;;
24261;SDS011;12385;51.412;5.540;2023-09-18T08:28:03;6.75;;;1.55;;
24261;SDS011;12385;51.412;5.540;2023-09-18T08:30:29;5.43;;;1.98;;
24261;SDS011;12385;51.412;5.540;2023-09-18T08:32:55;6.40;;;1.65;;
24261;SDS011;12385;51.412;5.540;2023-09-18T08:35:21;7.50;;;1.60;;
24261;SDS011;12385;51.412;5.540;2023-09-18T08:37:48;2.97;;;1.35;;
24261;SDS011;12385;51.412;5.540;2023-09-18T08:40:14;5.75;;;2.00;;
24261;SDS011;12385;51.412;5.540;2023-09-18T08:42:46;7.82;;;2.00;;
24261;SDS011;12385;51.412;5.540;2023-09-18T08:45:15;7.95;;;1.98;;
24261;SDS011;12385;51.412;5.540;2023-09-18T08:47:58;4.57;;;1.80;;
24261;SDS011;12385;51.412;5.540;2023-09-18T08:50:25;4.93;;;1.80;;
24261;SDS011;12385;51.412;5.540;2023-09-18T08:52:51;5.50;;;2.00;;
24261;SDS011;12385;51.412;5.540;2023-09-18T08:55:17;5.13;;;1.88;;
24261;SDS011;12385;51.412;5.540;2023-09-18T08:57:43;8.60;;;2.05;;
24261;SDS011;12385;51.412;5.540;2023-09-18T09:00:11;7.65;;;1.90;;
24261;SDS011;12385;51.412;5.540;2023-09-18T09:02:41;8.10;;;2.00;;
24261;SDS011;12385;51.412;5.540;2023-09-18T09:05:08;4.20;;;1.80;;
24261;SDS011;12385;51.412;5.540;2023-09-18T09:07:34;6.68;;;1.65;;
24261;SDS011;12385;51.412;5.540;2023-09-18T09:09:59;6.35;;;2.03;;
24261;SDS011;12385;51.412;5.540;2023-09-18T09:15:19;5.88;;;2.10;;
24261;SDS011;12385;51.412;5.540;2023-09-18T09:18:06;4.15;;;1.92;;
24261;SDS011;12385;51.412;5.540;2023-09-18T09:20:34;5.40;;;2.20;;
24261;SDS011;12385;51.412;5.540;2023-09-18T09:23:04;6.80;;;2.20;;
24261;SDS011;12385;51.412;5.540;2023-09-18T09:25:32;8.07;;;2.07;;
24261;SDS011;12385;51.412;5.540;2023-09-18T09:28:03;6.35;;;2.20;;
24261;SDS011;12385;51.412;5.540;2023-09-18T09:30:31;8.90;;;2.17;;
24261;SDS011;12385;51.412;5.540;2023-09-18T09:32:58;7.22;;;2.05;;
24261;SDS011;12385;51.412;5.540;2023-09-18T09:35:28;6.60;;;2.10;;
24261;SDS011;12385;51.412;5.540;2023-09-18T09:38:02;6.82;;;2.00;;
24261;SDS011;12385;51.412;5.540;2023-09-18T09:40:41;4.00;;;1.90;;
24261;SDS011;12385;51.412;5.540;2023-09-18T09:43:09;6.05;;;2.17;;
24261;SDS011;12385;51.412;5.540;2023-09-18T09:45:35;7.22;;;2.15;;
24261;SDS011;12385;51.412;5.540;2023-09-18T09:48:05;6.13;;;1.80;;
24261;SDS011;12385;51.412;5.540;2023-09-18T09:50:32;6.60;;;1.90;;
24261;SDS011;12385;51.412;5.540;2023-09-18T09:52:58;6.68;;;1.92;;
24261;SDS011;12385;51.412;5.540;2023-09-18T09:55:26;3.58;;;1.70;;
24261;SDS011;12385;51.412;5.540;2023-09-18T09:57:57;6.32;;;2.08;;
24261;SDS011;12385;51.412;5.540;2023-09-18T10:00:32;5.40;;;1.60;;
24261;SDS011;12385;51.412;5.540;2023-09-18T10:03:02;6.32;;;1.80;;
24261;SDS011;12385;51.412;5.540;2023-09-18T10:05:30;5.47;;;1.83;;
24261;SDS011;12385;51.412;5.540;2023-09-18T10:07:59;3.85;;;1.65;;
24261;SDS011;12385;51.412;5.540;2023-09-18T10:10:31;4.22;;;1.77;;
24261;SDS011;12385;51.412;5.540;2023-09-18T10:13:00;3.53;;;1.77;;
24261;SDS011;12385;51.412;5.540;2023-09-18T10:15:32;10.07;;;2.22;;
24261;SDS011;12385;51.412;5.540;2023-09-18T10:18:03;4.22;;;1.70;;
24261;SDS011;12385;51.412;5.540;2023-09-18T10:20:33;5.03;;;2.08;;
24261;SDS011;12385;51.412;5.540;2023-09-18T10:23:02;4.63;;;2.13;;
24261;SDS011;12385;51.412;5.540;2023-09-18T10:25:30;5.65;;;2.05;;
24261;SDS011;12385;51.412;5.540;2023-09-18T10:27:57;5.18;;;1.85;;
24261;SDS011;12385;51.412;5.540;2023-09-18T10:30:26;5.22;;;1.85;;
24261;SDS011;12385;51.412;5.540;2023-09-18T10:32:53;4.78;;;2.00;;
24261;SDS011;12385;51.412;5.540;2023-09-18T10:35:21;4.40;;;1.80;;
24261;SDS011;12385;51.412;5.540;2023-09-18T10:37:48;5.53;;;1.98;;
24261;SDS011;12385;51.412;5.540;2023-09-18T10:40:16;8.60;;;2.10;;
24261;SDS011;12385;51.412;5.540;2023-09-18T10:42:43;5.07;;;2.13;;
24261;SDS011;12385;51.412;5.540;2023-09-18T10:45:13;18.42;;;2.20;;
24261;SDS011;12385;51.412;5.540;2023-09-18T10:47:41;4.55;;;2.00;;
24261;SDS011;12385;51.412;5.540;2023-09-18T10:50:13;6.45;;;2.00;;
24261;SDS011;12385;51.412;5.540;2023-09-18T10:52:49;6.28;;;2.20;;
24261;SDS011;12385;51.412;5.540;2023-09-18T10:55:15;4.32;;;2.00;;
24261;SDS011;12385;51.412;5.540;2023-09-18T10:57:54;8.40;;;2.25;;
24261;SDS011;12385;51.412;5.540;2023-09-18T11:00:22;7.78;;;2.30;;
24261;SDS011;12385;51.412;5.540;2023-09-18T11:02:52;6.72;;;2.03;;
24261;SDS011;12385;51.412;5.540;2023-09-18T11:05:32;7.18;;;2.38;;
24261;SDS011;12385;51.412;5.540;2023-09-18T11:10:59;6.50;;;2.00;;
24261;SDS011;12385;51.412;5.540;2023-09-18T11:13:34;8.38;;;2.40;;
24261;SDS011;12385;51.412;5.540;2023-09-18T11:16:17;9.63;;;2.70;;
24261;SDS011;12385;51.412;5.540;2023-09-18T11:19:16;6.53;;;2.03;;
24261;SDS011;12385;51.412;5.540;2023-09-18T11:21:42;6.63;;;2.08;;
24261;SDS011;12385;51.412;5.540;2023-09-18T11:24:19;7.25;;;2.13;;
24261;SDS011;12385;51.412;5.540;2023-09-18T11:26:47;5.20;;;2.15;;
24261;SDS011;12385;51.412;5.540;2023-09-18T11:29:17;7.50;;;2.38;;
24261;SDS011;12385;51.412;5.540;2023-09-18T11:31:50;8.27;;;2.10;;
24261;SDS011;12385;51.412;5.540;2023-09-18T11:36:47;11.07;;;2.35;;
24261;SDS011;12385;51.412;5.540;2023-09-18T11:39:13;7.45;;;1.90;;
24261;SDS011;12385;51.412;5.540;2023-09-18T11:42:06;5.20;;;1.80;;
24261;SDS011;12385;51.412;5.540;2023-09-18T11:44:32;6.50;;;2.00;;
24261;SDS011;12385;51.412;5.540;2023-09-18T11:46:58;5.95;;;2.05;;
24261;SDS011;12385;51.412;5.540;2023-09-18T11:49:25;5.38;;;1.77;;
24261;SDS011;12385;51.412;5.540;2023-09-18T11:51:52;4.88;;;1.98;;
24261;SDS011;12385;51.412;5.540;2023-09-18T11:54:18;5.90;;;2.03;;
24261;SDS011;12385;51.412;5.540;2023-09-18T11:56:45;10.20;;;1.85;;
24261;SDS011;12385;51.412;5.540;2023-09-18T11:59:10;9.93;;;2.03;;
24261;SDS011;12385;51.412;5.540;2023-09-18T12:01:37;6.13;;;2.00;;
24261;SDS011;12385;51.412;5.540;2023-09-18T12:04:06;4.27;;;2.00;;
24261;SDS011;12385;51.412;5.540;2023-09-18T12:06:38;5.93;;;1.90;;
24261;SDS011;12385;51.412;5.540;2023-09-18T12:09:05;7.93;;;1.83;;
24261;SDS011;12385;51.412;5.540;2023-09-18T12:11:32;5.20;;;1.52;;
24261;SDS011;12385;51.412;5.540;2023-09-18T12:14:04;4.57;;;1.70;;
24261;SDS011;12385;51.412;5.540;2023-09-18T12:16:30;7.38;;;1.88;;
24261;SDS011;12385;51.412;5.540;2023-09-18T12:19:03;4.22;;;1.88;;
24261;SDS011;12385;51.412;5.540;2023-09-18T12:21:31;6.10;;;1.80;;
24261;SDS011;12385;51.412;5.540;2023-09-18T12:23:57;5.00;;;1.70;;
24261;SDS011;12385;51.412;5.540;2023-09-18T12:26:22;6.82;;;2.00;;
24261;SDS011;12385;51.412;5.540;2023-09-18T12:28:50;5.70;;;1.80;;
24261;SDS011;12385;51.412;5.540;2023-09-18T12:31:16;6.20;;;2.00;;
24261;SDS011;12385;51.412;5.540;2023-09-18T12:33:42;4.38;;;2.05;;
24261;SDS011;12385;51.412;5.540;2023-09-18T12:36:09;7.07;;;2.20;;
24261;SDS011;12385;51.412;5.540;2023-09-18T12:38:35;3.95;;;2.05;;
24261;SDS011;12385;51.412;5.540;2023-09-18T12:41:03;2.78;;;1.60;;
24261;SDS011;12385;51.412;5.540;2023-09-18T12:43:33;4.90;;;1.80;;
24261;SDS011;12385;51.412;5.540;2023-09-18T12:46:04;10.68;;;2.08;;
24261;SDS011;12385;51.412;5.540;2023-09-18T12:48:31;4.68;;;1.65;;
24261;SDS011;12385;51.412;5.540;2023-09-18T12:51:03;5.28;;;1.65;;
24261;SDS011;12385;51.412;5.540;2023-09-18T12:53:33;7.57;;;2.00;;
24261;SDS011;12385;51.412;5.540;2023-09-18T12:56:32;6.00;;;1.70;;
24261;SDS011;12385;51.412;5.540;2023-09-18T12:58:51;3.55;;;1.65;;
24261;SDS011;12385;51.412;5.540;2023-09-18T13:01:16;4.75;;;1.73;;
24261;SDS011;12385;51.412;5.540;2023-09-18T13:03:43;5.22;;;1.70;;
24261;SDS011;12385;51.412;5.540;2023-09-18T13:06:20;13.15;;;2.05;;
24261;SDS011;12385;51.412;5.540;2023-09-18T13:08:46;3.92;;;1.80;;
24261;SDS011;12385;51.412;5.540;2023-09-18T13:11:12;7.10;;;1.50;;
24261;SDS011;12385;51.412;5.540;2023-09-18T13:13:39;2.90;;;1.70;;
24261;SDS011;12385;51.412;5.540;2023-09-18T13:16:05;4.15;;;1.60;;
24261;SDS011;12385;51.412;5.540;2023-09-18T13:18:33;4.72;;;1.63;;
24261;SDS011;12385;51.412;5.540;2023-09-18T13:20:59;4.63;;;1.60;;
24261;SDS011;12385;51.412;5.540;2023-09-18T13:23:31;4.78;;;1.38;;
24261;SDS011;12385;51.412;5.540;2023-09-18T13:26:04;5.13;;;1.65;;
24261;SDS011;12385;51.412;5.540;2023-09-18T13:28:31;3.67;;;1.60;;
24261;SDS011;12385;51.412;5.540;2023-09-18T13:30:59;3.15;;;1.60;;
24261;SDS011;12385;51.412;5.540;2023-09-18T13:33:25;5.80;;;1.98;;
24261;SDS011;12385;51.412;5.540;2023-09-18T13:35:51;6.53;;;1.50;;
24261;SDS011;12385;51.412;5.540;2023-09-18T13:38:18;5.00;;;1.48;;
24261;SDS011;12385;51.412;5.540;2023-09-18T13:40:45;7.78;;;1.65;;
24261;SDS011;12385;51.412;5.540;2023-09-18T13:43:12;6.53;;;1.50;;
24261;SDS011;12385;51.412;5.540;2023-09-18T13:45:44;5.57;;;1.50;;
24261;SDS011;12385;51.412;5.540;2023-09-18T13:48:10;6.90;;;1.40;;
24261;SDS011;12385;51.412;5.540;2023-09-18T13:50:37;3.75;;;1.50;;
24261;SDS011;12385;51.412;5.540;2023-09-18T13:53:04;5.55;;;1.60;;
24261;SDS011;12385;51.412;5.540;2023-09-18T13:55:31;5.82;;;1.90;;
24261;SDS011;12385;51.412;5.540;2023-09-18T13:57:57;7.50;;;1.70;;
24261;SDS011;12385;51.412;5.540;2023-09-18T14:00:23;5.38;;;1.55;;
24261;SDS011;12385;51.412;5.540;2023-09-18T14:02:50;5.70;;;1.80;;
24261;SDS011;12385;51.412;5.540;2023-09-18T14:05:16;3.53;;;1.38;;
24261;SDS011;12385;51.412;5.540;2023-09-18T14:07:41;5.72;;;1.40;;
24261;SDS011;12385;51.412;5.540;2023-09-18T14:10:07;4.38;;;1.60;;
24261;SDS011;12385;51.412;5.540;2023-09-18T14:12:35;3.80;;;1.30;;
24261;SDS011;12385;51.412;5.540;2023-09-18T14:15:02;3.25;;;1.20;;
24261;SDS011;12385;51.412;5.540;2023-09-18T14:17:31;4.03;;;1.60;;
24261;SDS011;12385;51.412;5.540;2023-09-18T14:19:57;6.90;;;1.52;;
24261;SDS011;12385;51.412;5.540;2023-09-18T14:22:24;3.90;;;1.25;;
24261;SDS011;12385;51.412;5.540;2023-09-18T14:24:49;6.15;;;1.33;;
24261;SDS011;12385;51.412;5.540;2023-09-18T14:27:16;4.05;;;1.45;;
24261;SDS011;12385;51.412;5.540;2023-09-18T14:29:42;4.32;;;1.25;;
24261;SDS011;12385;51.412;5.540;2023-09-18T14:32:08;9.10;;;1.27;;
24261;SDS011;12385;51.412;5.540;2023-09-18T14:34:34;4.90;;;1.42;;
24261;SDS011;12385;51.412;5.540;2023-09-18T14:37:04;2.70;;;1.25;;
24261;SDS011;12385;51.412;5.540;2023-09-18T14:41:56;3.45;;;1.40;;
24261;SDS011;12385;51.412;5.540;2023-09-18T14:44:21;5.32;;;1.40;;
24261;SDS011;12385;51.412;5.540;2023-09-18T14:46:47;3.53;;;1.25;;
24261;SDS011;12385;51.412;5.540;2023-09-18T14:49:13;4.28;;;1.30;;
24261;SDS011;12385;51.412;5.540;2023-09-18T14:51:38;3.85;;;1.27;;
24261;SDS011;12385;51.412;5.540;2023-09-18T14:54:04;4.40;;;1.15;;
24261;SDS011;12385;51.412;5.540;2023-09-18T14:56:29;3.17;;;1.20;;
24261;SDS011;12385;51.412;5.540;2023-09-18T14:58:56;4.93;;;1.10;;
24261;SDS011;12385;51.412;5.540;2023-09-18T15:01:23;4.93;;;1.40;;
24261;SDS011;12385;51.412;5.540;2023-09-18T15:03:50;4.47;;;1.40;;